This is the latest recevied weather packets stored in our database for station/object CE4ERM-13. If no packets are shown the sender has not sent any weather packets the latest 10 day(s).
| Time | Temp. | Humidity | Pressure | Rain* | Wind** | Luminosity | Snow |
|---|---|---|---|---|---|---|---|
| 1777505871 | 25° C | 39% | 1013.1 hPa | - | - | - | - |
| 1777505271 | 25° C | 39% | 1014.5 hPa | - | - | - | - |
| 1777504671 | 25° C | 39% | 1015.1 hPa | - | - | - | - |
| 1777504469 | 28.33° C | 34% | 1012.8 hPa | - | - | - | - |
| 1777504071 | 25° C | 38% | 1015.6 hPa | - | - | - | - |
| 1777503868 | 28.89° C | 33% | 1015.2 hPa | - | - | - | - |
| 1777503469 | 25.56° C | 38% | 1010.7 hPa | - | - | - | - |
| 1777502269 | 25.56° C | 36% | 1016.3 hPa | - | - | - | - |
| 1777501669 | 25.56° C | 36% | 1014.5 hPa | - | - | - | - |
| 1777501467 | 30° C | 31% | 1011.5 hPa | - | - | - | - |
| 1777501070 | 25.56° C | 36% | 1013.1 hPa | - | - | - | - |
| 1777500867 | 30.56° C | 29% | 1012.2 hPa | - | - | - | - |
| 1777500469 | 25.56° C | 35% | 1013.5 hPa | - | - | - | - |
| 1777499911 | 26.11° C | 35% | 1015 hPa | - | - | - | - |
| 1777499868 | 26.11° C | 35% | 1015 hPa | - | - | - | - |
| 1777499666 | 31.67° C | 28% | 1012 hPa | - | - | - | - |
| 1777499065 | 31.11° C | 28% | 1013.7 hPa | - | - | - | - |
| 1777498667 | 26.67° C | 34% | 1015 hPa | - | - | - | - |
| 1777498465 | 31.67° C | 27% | 1012.9 hPa | - | - | - | - |
| 1777498067 | 26.67° C | 33% | 1014 hPa | - | - | - | - |
| 1777497865 | 31.67° C | 27% | 1012.7 hPa | - | - | - | - |
| 1777497467 | 26.67° C | 32% | 1012 hPa | - | - | - | - |
| 1777497263 | 32.22° C | 25% | 1012.6 hPa | - | - | - | - |
| 1777496866 | 26.67° C | 32% | 1015.1 hPa | - | - | - | - |
| 1777496663 | 32.78° C | 25% | 1012.9 hPa | - | - | - | - |
* Rain since midnight (hover to see other rain measurements)
** Current wind speed in m/s (hover to see current wind gust speed)